createdAt,value
2023-02-20T00:00:17.499Z,1.90
2023-02-20T00:02:44.315Z,1.60
2023-02-20T00:05:13.428Z,1.90
2023-02-20T00:07:41.131Z,2.00
2023-02-20T00:10:08.228Z,2.10
2023-02-20T00:12:34.590Z,1.90
2023-02-20T00:15:01.305Z,2.10
2023-02-20T00:17:28.749Z,2.03
2023-02-20T00:19:55.961Z,1.80
2023-02-20T00:22:23.313Z,1.40
2023-02-20T00:24:50.360Z,2.28
2023-02-20T00:27:17.202Z,2.20
2023-02-20T00:29:47.041Z,2.00
2023-02-20T00:32:14.025Z,1.70
2023-02-20T00:34:40.898Z,1.55
2023-02-20T00:37:08.586Z,1.70
2023-02-20T00:39:34.909Z,2.15
2023-02-20T00:42:01.994Z,1.33
2023-02-20T00:44:28.405Z,1.40
2023-02-20T00:46:55.227Z,1.45
2023-02-20T00:49:22.082Z,1.63
2023-02-20T00:51:48.812Z,1.20
2023-02-20T00:54:15.630Z,2.20
2023-02-20T00:56:42.561Z,1.88
2023-02-20T00:59:08.956Z,1.63
2023-02-20T01:01:35.330Z,1.90
2023-02-20T01:04:02.236Z,1.95
2023-02-20T01:06:28.603Z,2.22
2023-02-20T01:08:54.974Z,1.80
2023-02-20T01:11:21.843Z,2.13
2023-02-20T01:13:48.830Z,2.08
2023-02-20T01:16:15.455Z,1.55
2023-02-20T01:18:41.855Z,1.52
2023-02-20T01:21:09.898Z,2.38
2023-02-20T01:23:36.226Z,1.92
2023-02-20T01:26:03.456Z,1.25
2023-02-20T01:28:29.772Z,2.10
2023-02-20T01:30:56.119Z,1.90
2023-02-20T01:33:22.943Z,2.20
2023-02-20T01:35:49.660Z,2.03
2023-02-20T01:38:16.043Z,2.03
2023-02-20T01:40:48.799Z,2.20
2023-02-20T01:43:16.562Z,2.15
2023-02-20T01:45:43.521Z,2.20
2023-02-20T01:48:21.826Z,2.40
2023-02-20T01:50:50.514Z,1.63
2023-02-20T01:53:22.236Z,2.17
2023-02-20T01:55:53.839Z,2.05
2023-02-20T01:58:32.100Z,2.05
2023-02-20T02:01:00.672Z,2.50
2023-02-20T02:03:31.051Z,1.95
2023-02-20T02:06:03.480Z,1.95
2023-02-20T02:08:30.910Z,2.17
2023-02-20T02:11:02.650Z,1.80
2023-02-20T02:13:30.645Z,1.95
2023-02-20T02:16:07.360Z,1.92
2023-02-20T02:18:48.026Z,2.17
2023-02-20T02:21:36.438Z,2.70
2023-02-20T02:24:36.864Z,1.80
2023-02-20T02:27:37.542Z,2.00
2023-02-20T02:30:09.990Z,2.50
2023-02-20T02:32:45.860Z,2.00
2023-02-20T02:35:34.129Z,1.98
2023-02-20T02:38:22.782Z,2.45
2023-02-20T02:41:06.604Z,1.80
2023-02-20T02:43:59.981Z,1.80
2023-02-20T02:46:34.028Z,1.88
2023-02-20T02:49:25.765Z,2.17
2023-02-20T02:51:55.324Z,2.10
2023-02-20T02:54:28.197Z,1.67
2023-02-20T02:57:24.857Z,1.90
2023-02-20T03:00:16.805Z,2.45
2023-02-20T03:02:56.872Z,2.22
2023-02-20T03:05:27.329Z,1.58
2023-02-20T03:07:57.941Z,1.52
2023-02-20T03:10:35.658Z,2.00
2023-02-20T03:13:05.638Z,2.22
2023-02-20T03:15:39.120Z,2.03
2023-02-20T03:18:38.861Z,2.53
2023-02-20T03:21:14.614Z,2.28
2023-02-20T03:23:44.898Z,2.63
2023-02-20T03:26:18.819Z,1.75
2023-02-20T03:28:59.326Z,1.83
2023-02-20T03:31:32.958Z,2.28
2023-02-20T03:34:32.576Z,2.58
2023-02-20T03:37:35.462Z,1.80
2023-02-20T03:40:25.861Z,1.92
2023-02-20T03:43:15.745Z,1.58
2023-02-20T03:45:45.100Z,2.38
2023-02-20T03:48:37.877Z,2.63
2023-02-20T03:51:23.576Z,2.35
2023-02-20T03:53:50.826Z,2.10
2023-02-20T03:56:27.434Z,2.42
2023-02-20T03:59:12.691Z,1.35
2023-02-20T04:04:10.215Z,1.55
2023-02-20T04:06:38.394Z,1.83
2023-02-20T04:09:08.863Z,1.83
2023-02-20T04:12:05.203Z,1.90
2023-02-20T04:14:33.042Z,1.63
2023-02-20T04:17:05.650Z,2.40
2023-02-20T04:19:32.542Z,2.55
2023-02-20T04:22:02.733Z,3.05
2023-02-20T04:24:41.518Z,2.15
2023-02-20T04:27:08.566Z,2.15
2023-02-20T04:29:34.929Z,2.17
2023-02-20T04:32:01.820Z,1.95
2023-02-20T04:34:28.397Z,2.47
2023-02-20T04:37:07.198Z,1.95
2023-02-20T04:39:33.521Z,2.08
2023-02-20T04:41:59.841Z,2.63
2023-02-20T04:44:32.562Z,2.25
2023-02-20T04:47:03.983Z,2.88
2023-02-20T04:49:30.437Z,3.25
2023-02-20T04:51:57.328Z,2.30
2023-02-20T04:54:24.329Z,3.05
2023-02-20T04:56:51.029Z,1.90
2023-02-20T04:59:17.898Z,1.95
2023-02-20T05:01:48.288Z,1.23
2023-02-20T05:04:16.286Z,2.22
2023-02-20T05:06:53.322Z,1.80
2023-02-20T05:09:21.057Z,2.35
2023-02-20T05:11:47.652Z,2.97
2023-02-20T05:14:15.107Z,2.58
2023-02-20T05:16:42.343Z,1.73
2023-02-20T05:19:09.397Z,2.60
2023-02-20T05:21:54.524Z,1.92
2023-02-20T05:24:21.958Z,2.28
2023-02-20T05:26:48.280Z,2.45
2023-02-20T05:29:14.673Z,2.45
2023-02-20T05:31:42.301Z,1.70
2023-02-20T05:34:09.139Z,2.83
2023-02-20T05:36:35.478Z,1.80
2023-02-20T05:39:02.495Z,3.22
2023-02-20T05:41:28.911Z,2.00
2023-02-20T05:43:57.493Z,1.77
2023-02-20T05:46:28.227Z,2.35
2023-02-20T05:48:55.448Z,2.72
2023-02-20T05:51:27.658Z,1.73
2023-02-20T05:53:54.485Z,2.47
2023-02-20T05:56:21.361Z,2.08
2023-02-20T05:58:48.712Z,3.50
2023-02-20T06:01:25.053Z,2.90
2023-02-20T06:03:52.097Z,2.75
2023-02-20T06:06:19.383Z,2.22
2023-02-20T06:08:46.148Z,2.03
2023-02-20T06:11:13.298Z,2.35
2023-02-20T06:13:41.506Z,3.30
2023-02-20T06:16:08.804Z,3.22
2023-02-20T06:18:39.889Z,2.67
2023-02-20T06:21:10.834Z,2.88
2023-02-20T06:23:38.668Z,2.42
2023-02-20T06:26:06.895Z,2.25
2023-02-20T06:28:34.280Z,2.72
2023-02-20T06:31:01.958Z,2.60
2023-02-20T06:33:29.091Z,2.35
2023-02-20T06:35:55.808Z,1.67
2023-02-20T06:38:22.390Z,2.60
2023-02-20T06:40:48.701Z,3.10
2023-02-20T06:43:15.496Z,2.78
2023-02-20T06:45:41.962Z,3.00
2023-02-20T06:48:08.532Z,2.88
2023-02-20T06:50:35.387Z,2.20
2023-02-20T06:53:01.784Z,2.92
2023-02-20T06:55:28.107Z,1.83
2023-02-20T06:57:55.023Z,2.60
2023-02-20T07:00:21.995Z,2.50
2023-02-20T07:02:48.323Z,1.88
2023-02-20T07:05:14.654Z,1.55
2023-02-20T07:07:41.379Z,2.92
2023-02-20T07:10:08.298Z,2.60
2023-02-20T07:12:37.851Z,3.03
2023-02-20T07:15:07.000Z,3.05
2023-02-20T07:17:33.374Z,3.45
2023-02-20T07:19:59.753Z,3.78
2023-02-20T07:22:26.472Z,4.38
2023-02-20T07:24:53.417Z,4.97
2023-02-20T07:27:20.537Z,3.40
2023-02-20T07:29:48.505Z,4.78
2023-02-20T07:32:17.653Z,3.72
2023-02-20T07:34:51.376Z,4.05
2023-02-20T07:37:27.705Z,3.63
2023-02-20T07:39:54.630Z,3.72
2023-02-20T07:42:21.018Z,3.30
2023-02-20T07:44:48.723Z,4.68
2023-02-20T07:47:15.977Z,5.57
2023-02-20T07:49:44.504Z,4.88
2023-02-20T07:52:11.065Z,2.92
2023-02-20T07:54:37.383Z,2.10
2023-02-20T07:57:04.143Z,2.13
2023-02-20T07:59:30.909Z,3.08
2023-02-20T08:01:57.280Z,3.10
2023-02-20T08:04:23.626Z,3.03
2023-02-20T08:06:50.415Z,2.75
2023-02-20T08:09:16.775Z,2.15
2023-02-20T08:11:43.429Z,2.40
2023-02-20T08:14:09.813Z,2.00
2023-02-20T08:16:36.225Z,2.72
2023-02-20T08:19:03.104Z,2.97
2023-02-20T08:21:29.558Z,1.95
2023-02-20T08:23:56.994Z,2.30
2023-02-20T08:26:23.808Z,2.22
2023-02-20T08:28:50.866Z,2.80
2023-02-20T08:31:31.205Z,3.67
2023-02-20T08:33:58.770Z,3.13
2023-02-20T08:36:25.464Z,2.47
2023-02-20T08:38:51.816Z,2.00
2023-02-20T08:41:18.154Z,1.92
2023-02-20T08:43:45.196Z,2.40
2023-02-20T08:46:12.850Z,1.63
2023-02-20T08:48:39.466Z,2.08
2023-02-20T08:51:06.842Z,2.22
2023-02-20T08:53:34.894Z,2.13
2023-02-20T08:56:01.254Z,1.52
2023-02-20T08:58:27.674Z,2.42
2023-02-20T09:00:55.065Z,2.00
2023-02-20T09:03:21.665Z,2.20
2023-02-20T09:05:48.300Z,1.58
2023-02-20T09:08:15.317Z,2.00
2023-02-20T09:10:41.781Z,1.92
2023-02-20T09:13:08.584Z,2.28
2023-02-20T09:15:40.034Z,1.75
2023-02-20T09:18:12.600Z,1.60
2023-02-20T09:20:39.576Z,2.08
2023-02-20T09:23:06.610Z,1.52
2023-02-20T09:25:33.336Z,1.20
2023-02-20T09:27:59.826Z,1.92
2023-02-20T09:30:26.496Z,1.58
2023-02-20T09:32:54.300Z,1.70
2023-02-20T09:35:25.763Z,1.98
2023-02-20T09:37:53.018Z,2.08
2023-02-20T09:40:31.732Z,1.88
2023-02-20T09:43:15.664Z,1.80
2023-02-20T09:45:51.562Z,2.70
2023-02-20T09:48:28.042Z,1.58
2023-02-20T09:51:01.837Z,1.85
2023-02-20T09:53:41.329Z,1.50
2023-02-20T09:56:15.798Z,1.63
2023-02-20T09:58:51.213Z,1.35
2023-02-20T10:01:21.973Z,2.10
2023-02-20T10:04:01.145Z,2.60
2023-02-20T10:06:30.255Z,2.00
2023-02-20T10:08:57.741Z,1.38
2023-02-20T10:11:41.274Z,2.53
2023-02-20T10:14:29.887Z,3.40
2023-02-20T10:17:13.542Z,2.78
2023-02-20T10:20:08.359Z,2.10
2023-02-20T10:23:13.922Z,2.25
2023-02-20T10:25:46.314Z,1.92
2023-02-20T10:28:16.533Z,2.30
2023-02-20T10:30:51.557Z,1.50
2023-02-20T10:33:36.998Z,2.00
2023-02-20T10:36:28.226Z,1.23
2023-02-20T10:39:06.688Z,3.08
2023-02-20T10:41:42.620Z,1.60
2023-02-20T10:44:24.311Z,1.45
2023-02-20T10:47:12.786Z,1.33
2023-02-20T10:49:52.675Z,1.40
2023-02-20T10:52:34.250Z,1.73
2023-02-20T10:55:03.718Z,1.20
2023-02-20T10:57:58.237Z,1.60
2023-02-20T11:00:36.714Z,1.17
2023-02-20T11:03:12.885Z,1.10
2023-02-20T11:05:46.220Z,1.27
2023-02-20T11:08:13.232Z,1.10
2023-02-20T11:10:39.577Z,1.20
2023-02-20T11:13:15.827Z,1.60
2023-02-20T11:15:43.644Z,1.10
2023-02-20T11:18:35.721Z,1.13
2023-02-20T11:21:02.466Z,1.00
2023-02-20T11:23:43.291Z,1.02
2023-02-20T11:26:21.908Z,0.98
2023-02-20T11:29:06.789Z,0.85
2023-02-20T11:31:35.331Z,1.45
2023-02-20T11:34:05.306Z,2.00
2023-02-20T11:36:39.767Z,0.85
2023-02-20T11:39:20.106Z,1.17
2023-02-20T11:41:50.790Z,2.70
2023-02-20T11:44:23.270Z,1.90
2023-02-20T11:47:11.681Z,1.10
2023-02-20T11:49:38.566Z,1.23
2023-02-20T11:52:24.842Z,2.83
2023-02-20T11:55:29.888Z,1.17
2023-02-20T11:57:56.515Z,3.35
2023-02-20T12:00:29.400Z,1.40
2023-02-20T12:03:05.186Z,1.75
2023-02-20T12:05:46.412Z,0.90
2023-02-20T12:08:31.876Z,1.48
2023-02-20T12:11:01.940Z,1.30
2023-02-20T12:13:28.395Z,1.25
2023-02-20T12:16:03.710Z,2.08
2023-02-20T12:18:45.518Z,1.27
2023-02-20T12:21:30.215Z,0.80
2023-02-20T12:24:17.302Z,0.63
2023-02-20T12:26:48.979Z,0.90
2023-02-20T12:29:30.450Z,0.63
2023-02-20T12:32:13.219Z,0.70
2023-02-20T12:35:00.988Z,0.90
2023-02-20T12:37:39.624Z,0.60
2023-02-20T12:40:32.407Z,0.70
2023-02-20T12:43:05.348Z,0.80
2023-02-20T12:46:02.666Z,0.73
2023-02-20T12:49:06.740Z,0.82
2023-02-20T12:51:44.411Z,0.77
2023-02-20T12:54:29.704Z,0.90
2023-02-20T12:57:37.986Z,0.77
2023-02-20T13:00:22.666Z,0.60
2023-02-20T13:02:55.344Z,1.17
2023-02-20T13:05:27.778Z,0.80
2023-02-20T13:08:04.239Z,0.80
2023-02-20T13:10:41.694Z,0.80
2023-02-20T13:13:10.406Z,0.70
2023-02-20T13:15:43.156Z,0.90
2023-02-20T13:18:28.268Z,0.60
2023-02-20T13:21:06.967Z,1.00
2023-02-20T13:23:36.451Z,0.70
2023-02-20T13:26:24.051Z,0.50
2023-02-20T13:28:51.137Z,0.75
2023-02-20T13:31:44.078Z,0.75
2023-02-20T13:34:10.362Z,0.88
2023-02-20T13:36:45.100Z,0.90
2023-02-20T13:39:33.584Z,1.00
2023-02-20T13:42:04.976Z,0.90
2023-02-20T13:44:37.132Z,0.80
2023-02-20T13:47:28.132Z,0.85
2023-02-20T13:49:59.840Z,0.80
2023-02-20T13:52:29.324Z,0.60
2023-02-20T13:55:02.848Z,0.70
2023-02-20T13:57:36.500Z,0.70
2023-02-20T14:00:33.589Z,1.05
2023-02-20T14:03:00.348Z,0.98
2023-02-20T14:05:31.877Z,1.05
2023-02-20T14:07:59.400Z,1.27
2023-02-20T14:10:29.308Z,0.80
2023-02-20T14:13:30.906Z,1.30
2023-02-20T14:16:01.523Z,0.80
2023-02-20T14:18:33.253Z,0.80
2023-02-20T14:21:21.546Z,0.70
2023-02-20T14:23:49.338Z,1.00
2023-02-20T14:26:27.399Z,1.00
2023-02-20T14:28:56.344Z,0.90
2023-02-20T14:31:24.451Z,0.90
2023-02-20T14:34:20.030Z,0.90
2023-02-20T14:37:24.663Z,1.20
2023-02-20T14:40:43.021Z,0.88
2023-02-20T14:43:22.490Z,0.90
2023-02-20T14:46:00.879Z,1.00
2023-02-20T14:48:31.495Z,1.58
2023-02-20T14:51:04.457Z,1.15
2023-02-20T14:53:30.785Z,1.00
2023-02-20T14:55:57.660Z,0.60
2023-02-20T14:58:24.033Z,0.80
2023-02-20T15:00:52.929Z,0.60
2023-02-20T15:03:30.243Z,0.70
2023-02-20T15:06:02.243Z,0.88
2023-02-20T15:08:33.614Z,1.27
2023-02-20T15:11:08.764Z,0.80
2023-02-20T15:13:39.239Z,0.90
2023-02-20T15:16:17.490Z,0.70
2023-02-20T15:18:47.759Z,0.90
2023-02-20T15:21:31.095Z,0.60
2023-02-20T15:24:31.978Z,0.80
2023-02-20T15:27:14.485Z,0.75
2023-02-20T15:29:42.109Z,0.98
2023-02-20T15:32:23.524Z,0.60
2023-02-20T15:34:55.749Z,0.75
2023-02-20T15:37:37.953Z,0.63
2023-02-20T15:40:17.136Z,0.50
2023-02-20T15:42:43.914Z,1.17
2023-02-20T15:45:13.154Z,0.60
2023-02-20T15:47:39.958Z,0.75
2023-02-20T15:50:06.546Z,0.73
2023-02-20T15:52:32.966Z,1.52
2023-02-20T15:55:02.046Z,2.72
2023-02-20T15:57:28.387Z,0.80
2023-02-20T15:59:55.742Z,1.20
2023-02-20T16:02:24.431Z,0.90
2023-02-20T16:04:52.105Z,0.60
2023-02-20T16:07:20.213Z,0.75
2023-02-20T16:09:46.939Z,0.70
2023-02-20T16:12:21.232Z,0.90
2023-02-20T16:14:53.564Z,1.17
2023-02-20T16:17:26.432Z,1.45
2023-02-20T16:19:53.076Z,0.90
2023-02-20T16:22:19.785Z,0.90
2023-02-20T16:24:47.019Z,0.85
2023-02-20T16:27:25.543Z,0.70
2023-02-20T16:29:53.226Z,0.90
2023-02-20T16:32:28.061Z,0.70
2023-02-20T16:37:23.185Z,0.70
2023-02-20T16:39:49.812Z,0.90
2023-02-20T16:42:34.102Z,0.70
2023-02-20T16:45:12.559Z,0.80
2023-02-20T16:47:39.319Z,1.00
2023-02-20T16:50:09.381Z,1.17
2023-02-20T16:52:38.136Z,1.05
2023-02-20T16:55:18.565Z,0.88
2023-02-20T16:57:45.653Z,1.15
2023-02-20T17:00:20.955Z,1.05
2023-02-20T17:02:47.945Z,0.75
2023-02-20T17:05:15.152Z,0.85
2023-02-20T17:07:41.597Z,0.77
2023-02-20T17:10:09.751Z,0.75
2023-02-20T17:12:36.774Z,0.93
2023-02-20T17:15:05.431Z,1.25
2023-02-20T17:17:33.733Z,1.08
2023-02-20T17:20:00.973Z,3.78
2023-02-20T17:22:28.698Z,6.70
2023-02-20T17:24:57.565Z,2.63
2023-02-20T17:27:25.017Z,1.30
2023-02-20T17:29:51.457Z,1.25
2023-02-20T17:32:18.803Z,1.10
2023-02-20T17:34:45.249Z,1.10
2023-02-20T17:37:12.802Z,0.98
2023-02-20T17:39:39.684Z,1.20
2023-02-20T17:42:06.296Z,1.00
2023-02-20T17:44:33.162Z,1.05
2023-02-20T17:47:01.571Z,0.90
2023-02-20T17:49:28.333Z,1.23
2023-02-20T17:51:58.904Z,1.10
2023-02-20T17:54:25.691Z,1.00
2023-02-20T17:56:52.485Z,1.10
2023-02-20T17:59:19.067Z,0.70
2023-02-20T18:01:45.744Z,0.70
2023-02-20T18:04:12.659Z,1.15
2023-02-20T18:06:39.796Z,1.13
2023-02-20T18:09:08.517Z,0.85
2023-02-20T18:11:35.602Z,1.02
2023-02-20T18:14:01.981Z,1.15
2023-02-20T18:16:29.284Z,0.90
2023-02-20T18:18:56.088Z,1.10
2023-02-20T18:21:25.202Z,1.00
2023-02-20T18:23:52.032Z,1.15
2023-02-20T18:26:18.901Z,0.77
2023-02-20T18:28:45.625Z,1.35
2023-02-20T18:31:13.945Z,0.90
2023-02-20T18:33:40.683Z,0.90
2023-02-20T18:36:08.712Z,0.90
2023-02-20T18:38:36.653Z,1.05
2023-02-20T18:41:03.758Z,1.02
2023-02-20T18:43:30.417Z,1.00
2023-02-20T18:45:57.403Z,1.00
2023-02-20T18:48:23.833Z,1.30
2023-02-20T18:50:51.589Z,0.82
2023-02-20T18:53:18.360Z,0.90
2023-02-20T18:55:44.686Z,1.10
2023-02-20T18:58:10.998Z,1.25
2023-02-20T19:00:39.658Z,0.98
2023-02-20T19:03:06.379Z,0.90
2023-02-20T19:05:32.823Z,1.40
2023-02-20T19:08:00.177Z,1.20
2023-02-20T19:10:27.560Z,1.05
2023-02-20T19:12:55.344Z,1.20
2023-02-20T19:15:22.897Z,1.27
2023-02-20T19:17:49.550Z,1.30
2023-02-20T19:20:19.675Z,1.40
2023-02-20T19:22:46.709Z,1.60
2023-02-20T19:25:13.978Z,7.88
2023-02-20T19:27:40.376Z,3.53
2023-02-20T19:30:08.970Z,5.22
2023-02-20T19:32:35.524Z,1.70
2023-02-20T19:35:01.964Z,1.70
2023-02-20T19:37:28.680Z,1.40
2023-02-20T19:39:55.258Z,2.03
2023-02-20T19:42:22.245Z,1.90
2023-02-20T19:44:49.190Z,1.83
2023-02-20T19:47:16.964Z,1.83
2023-02-20T19:49:47.116Z,1.85
2023-02-20T19:52:14.268Z,2.05
2023-02-20T19:54:44.195Z,2.88
2023-02-20T19:57:10.917Z,2.13
2023-02-20T19:59:37.909Z,2.00
2023-02-20T20:02:04.524Z,2.08
2023-02-20T20:04:32.453Z,2.50
2023-02-20T20:07:00.931Z,2.00
2023-02-20T20:09:36.235Z,1.58
2023-02-20T20:12:05.029Z,2.45
2023-02-20T20:14:31.822Z,1.50
2023-02-20T20:16:58.272Z,1.70
2023-02-20T20:19:25.169Z,1.90
2023-02-20T20:21:51.600Z,1.80
2023-02-20T20:24:18.377Z,1.90
2023-02-20T20:26:45.209Z,2.15
2023-02-20T20:29:11.570Z,1.77
2023-02-20T20:31:41.031Z,2.33
2023-02-20T20:34:09.396Z,2.67
2023-02-20T20:36:35.888Z,3.13
2023-02-20T20:39:02.706Z,2.67
2023-02-20T20:41:36.105Z,2.45
2023-02-20T20:44:09.489Z,2.50
2023-02-20T20:46:39.127Z,2.92
2023-02-20T20:49:05.465Z,2.13
2023-02-20T20:51:31.848Z,1.92
2023-02-20T20:53:58.922Z,2.00
2023-02-20T20:56:25.303Z,11.13
2023-02-20T20:58:51.654Z,4.90
2023-02-20T21:01:18.636Z,9.05
2023-02-20T21:03:45.045Z,2.42
2023-02-20T21:06:11.478Z,2.80
2023-02-20T21:08:38.261Z,2.33
2023-02-20T21:11:05.143Z,1.90
2023-02-20T21:13:31.500Z,2.03
2023-02-20T21:15:58.305Z,1.80
2023-02-20T21:18:24.738Z,1.80
2023-02-20T21:20:51.044Z,1.70
2023-02-20T21:23:17.825Z,1.73
2023-02-20T21:25:44.143Z,1.42
2023-02-20T21:28:10.522Z,2.47
2023-02-20T21:30:37.129Z,2.72
2023-02-20T21:33:03.523Z,3.88
2023-02-20T21:35:29.932Z,4.07
2023-02-20T21:37:56.754Z,2.92
2023-02-20T21:40:23.208Z,3.20
2023-02-20T21:43:08.659Z,2.40
2023-02-20T21:48:04.434Z,3.63
2023-02-20T21:50:31.692Z,3.40
2023-02-20T21:52:58.120Z,2.67
2023-02-20T21:55:24.576Z,2.15
2023-02-20T21:57:51.708Z,2.25
2023-02-20T22:00:18.082Z,2.78
2023-02-20T22:02:44.672Z,2.42
2023-02-20T22:05:11.985Z,3.08
2023-02-20T22:07:56.925Z,2.47
2023-02-20T22:10:43.295Z,2.72
2023-02-20T22:13:28.631Z,2.72
2023-02-20T22:18:59.762Z,2.80
2023-02-20T22:21:44.985Z,2.22
2023-02-20T22:24:38.184Z,1.92
2023-02-20T22:27:26.078Z,1.70
2023-02-20T22:30:11.569Z,2.42
2023-02-20T22:32:57.185Z,1.98
2023-02-20T22:35:42.647Z,1.67
2023-02-20T22:38:27.749Z,1.90
2023-02-20T22:41:12.905Z,1.92
2023-02-20T22:46:43.416Z,2.13
2023-02-20T22:49:28.776Z,2.42
2023-02-20T22:55:04.677Z,2.50
2023-02-20T22:57:50.304Z,2.45
2023-02-20T23:00:35.501Z,1.50
2023-02-20T23:03:20.593Z,2.15
2023-02-20T23:06:16.851Z,2.75
2023-02-20T23:09:03.784Z,1.98
2023-02-20T23:11:52.088Z,2.60
2023-02-20T23:14:38.074Z,2.47
2023-02-20T23:17:40.562Z,2.40
2023-02-20T23:20:31.531Z,2.60
2023-02-20T23:23:17.121Z,2.65
2023-02-20T23:26:01.917Z,2.10
2023-02-20T23:28:47.866Z,2.28
2023-02-20T23:31:33.668Z,2.50
2023-02-20T23:34:20.776Z,2.92
2023-02-20T23:37:11.133Z,2.65
2023-02-20T23:39:56.851Z,2.13
2023-02-20T23:42:41.737Z,2.53
2023-02-20T23:45:28.613Z,1.83
2023-02-20T23:48:13.523Z,2.60
2023-02-20T23:50:58.740Z,2.17
2023-02-20T23:53:43.445Z,2.00
2023-02-20T23:56:28.467Z,2.03
2023-02-20T23:59:13.170Z,2.45
